Time;durP1;ratioP1;P1;durP2;ratioP2;P2;SDS_P1;SDS_P2;PMS_P1;PMS_P2;Temp;Humidity;BMP_temperature;BMP_pressure;BME280_temperature;BME280_humidity;BME280_pressure;Samples;Min_cycle;Max_cycle;Signal;HPM_P1;HPM_P2
2023/02/24 00:01:58;;;;;;;45.00;14.10;;;5.40;99.90;;;;;;5073957;28;20114;-65
2023/02/24 00:04:25;;;;;;;44.30;14.88;;;5.30;99.90;;;;;;5076254;28;20050;-65
2023/02/24 00:06:51;;;;;;;42.97;13.63;;;5.40;99.90;;;;;;5072219;28;20062;-65
2023/02/24 00:09:22;;;;;;;38.10;12.38;;;5.30;99.90;;;;;;5073243;28;20395;-64
2023/02/24 00:11:57;;;;;;;31.30;11.32;;;5.30;99.90;;;;;;5078818;28;20048;-64
2023/02/24 00:14:27;;;;;;;27.88;10.00;;;5.30;99.90;;;;;;5079001;28;20066;-64
2023/02/24 00:16:53;;;;;;;26.38;9.57;;;5.30;99.90;;;;;;5073549;28;20115;-63
2023/02/24 00:19:22;;;;;;;29.45;9.90;;;5.30;99.90;;;;;;5067185;28;20040;-66
2023/02/24 00:21:49;;;;;;;27.65;9.60;;;5.40;99.90;;;;;;5057900;28;20055;-65
2023/02/24 00:24:14;;;;;;;26.15;9.52;;;5.40;99.90;;;;;;5063638;28;20040;-65
2023/02/24 00:26:40;;;;;;;25.27;10.25;;;5.40;99.90;;;;;;5056616;28;20036;-65
2023/02/24 00:29:08;;;;;;;25.65;9.80;;;5.50;99.90;;;;;;5061744;28;20043;-63
2023/02/24 00:31:38;;;;;;;33.08;12.15;;;5.40;99.90;;;;;;5058135;28;20040;-64
2023/02/24 00:34:05;;;;;;;25.10;10.88;;;5.40;99.90;;;;;;5059986;28;20045;-65
2023/02/24 00:36:32;;;;;;;35.33;12.55;;;5.30;99.90;;;;;;5060577;28;20098;-64
2023/02/24 00:39:08;;;;;;;35.80;11.82;;;5.40;99.90;;;;;;5061944;28;20119;-64
2023/02/24 00:41:36;;;;;;;31.33;10.57;;;5.30;99.90;;;;;;5059994;28;20135;-64
2023/02/24 00:44:08;;;;;;;27.95;12.07;;;5.40;99.90;;;;;;5061696;28;20044;-65
2023/02/24 00:46:40;;;;;;;26.40;11.35;;;5.40;99.90;;;;;;5057410;28;20078;-65
2023/02/24 00:49:11;;;;;;;29.63;11.80;;;5.40;99.90;;;;;;5062860;28;20041;-63
2023/02/24 00:51:39;;;;;;;34.55;12.10;;;5.40;99.90;;;;;;5059862;28;20029;-64
2023/02/24 00:54:05;;;;;;;29.83;11.70;;;5.40;99.90;;;;;;5062433;28;20036;-63
2023/02/24 00:56:31;;;;;;;39.92;12.07;;;5.30;99.90;;;;;;5055244;28;21183;-63
2023/02/24 00:58:58;;;;;;;40.03;8.60;;;5.30;99.90;;;;;;5061244;28;20033;-66
2023/02/24 01:01:28;;;;;;;35.90;4.28;;;5.30;99.90;;;;;;5059500;28;20151;-66
2023/02/24 01:03:53;;;;;;;12.73;2.95;;;4.90;99.90;;;;;;5053287;28;20040;-65
2023/02/24 01:06:21;;;;;;;5.60;2.13;;;4.80;99.90;;;;;;5052623;28;20551;-63
2023/02/24 01:08:49;;;;;;;4.72;2.17;;;4.60;99.90;;;;;;5062797;28;20028;-64
2023/02/24 01:12:16;;;;;;;5.20;2.10;;;4.40;99.90;;;;;;5061193;28;21643;-64
2023/02/24 01:14:25;;;;;;;3.15;2.10;;;4.30;99.90;;;;;;5061918;28;20044;-65
2023/02/24 01:16:52;;;;;;;7.70;2.40;;;4.40;99.90;;;;;;5058843;28;20079;-65
2023/02/24 01:19:21;;;;;;;4.30;2.33;;;4.40;99.90;;;;;;5055173;28;20044;-64
2023/02/24 01:21:50;;;;;;;3.47;2.13;;;4.40;99.90;;;;;;5059102;28;20045;-62
2023/02/24 01:24:16;;;;;;;5.20;1.85;;;4.50;99.90;;;;;;5066873;28;20044;-64
2023/02/24 01:26:42;;;;;;;3.05;1.63;;;4.40;99.90;;;;;;5040502;28;20504;-63
2023/02/24 01:29:08;;;;;;;3.13;1.52;;;4.30;99.90;;;;;;5064238;28;20139;-64
2023/02/24 01:31:37;;;;;;;2.00;1.30;;;4.30;99.90;;;;;;5055024;28;20649;-64
2023/02/24 01:34:04;;;;;;;3.42;1.10;;;4.30;99.90;;;;;;5062161;28;20037;-64
2023/02/24 01:36:32;;;;;;;2.05;1.00;;;4.30;99.90;;;;;;5061974;28;20063;-63
2023/02/24 01:38:59;;;;;;;1.55;1.00;;;4.30;99.90;;;;;;5060274;28;20416;-64
2023/02/24 01:41:29;;;;;;;2.13;0.90;;;4.30;99.90;;;;;;5060054;28;20170;-64
2023/02/24 01:44:26;;;;;;;2.42;1.02;;;4.20;99.90;;;;;;5060301;28;20395;-65
2023/02/24 01:46:52;;;;;;;1.65;0.95;;;4.30;99.90;;;;;;5058453;28;20037;-65
2023/02/24 01:49:28;;;;;;;0.90;0.68;;;4.20;99.90;;;;;;5060061;28;20043;-64
2023/02/24 01:52:02;;;;;;;2.15;0.80;;;4.30;99.90;;;;;;5060727;28;20387;-63
2023/02/24 01:54:41;;;;;;;1.48;0.63;;;4.30;99.90;;;;;;5064159;28;20086;-62
2023/02/24 01:57:09;;;;;;;1.15;0.60;;;4.20;99.90;;;;;;5059992;28;20044;-64
2023/02/24 01:59:36;;;;;;;1.48;0.63;;;4.20;99.90;;;;;;5063968;28;21653;-64
2023/02/24 02:02:06;;;;;;;1.48;0.60;;;4.20;99.90;;;;;;5056531;28;20041;-65
2023/02/24 02:04:47;;;;;;;1.90;0.80;;;4.10;99.90;;;;;;5059728;28;20500;-64
2023/02/24 02:07:18;;;;;;;1.17;0.68;;;4.10;99.90;;;;;;5054944;28;20044;-62
2023/02/24 02:09:46;;;;;;;1.45;0.70;;;4.10;99.90;;;;;;5060535;28;20450;-64
2023/02/24 02:12:12;;;;;;;4.47;0.80;;;4.10;99.90;;;;;;5057233;28;21132;-64
2023/02/24 02:14:42;;;;;;;1.30;0.82;;;4.10;99.90;;;;;;5063804;28;20098;-64
2023/02/24 02:17:29;;;;;;;1.23;0.60;;;4.10;99.90;;;;;;5058549;28;20047;-64
2023/02/24 02:19:55;;;;;;;1.27;0.40;;;4.00;99.90;;;;;;5062772;28;20074;-64
2023/02/24 02:22:58;;;;;;;1.02;0.65;;;4.00;99.90;;;;;;5055693;28;20040;-65
2023/02/24 02:25:58;;;;;;;0.93;0.50;;;4.00;99.90;;;;;;5060341;28;20047;-62
2023/02/24 02:28:55;;;;;;;0.35;0.35;;;4.00;99.90;;;;;;5058229;28;20559;-62
2023/02/24 02:31:49;;;;;;;1.92;0.40;;;4.00;99.90;;;;;;5057772;28;20036;-61
2023/02/24 02:34:40;;;;;;;1.80;0.50;;;4.00;99.90;;;;;;5058912;28;20068;-65
2023/02/24 02:37:23;;;;;;;1.88;0.98;;;4.00;99.90;;;;;;5059036;28;20127;-63
2023/02/24 02:40:06;;;;;;;1.83;0.90;;;4.00;99.90;;;;;;5064438;28;20068;-63
2023/02/24 02:42:52;;;;;;;2.38;0.90;;;3.90;99.90;;;;;;5060421;28;20378;-63
2023/02/24 02:45:35;;;;;;;3.40;1.23;;;3.80;99.90;;;;;;5059254;28;20044;-62
2023/02/24 02:48:15;;;;;;;3.22;1.67;;;3.80;99.90;;;;;;5060777;28;20533;-64
2023/02/24 02:50:53;;;;;;;2.67;1.15;;;3.60;99.90;;;;;;5060210;28;20039;-64
2023/02/24 02:53:48;;;;;;;3.17;1.45;;;3.60;99.90;;;;;;5060212;28;20044;-63
2023/02/24 02:56:32;;;;;;;3.25;1.70;;;3.50;99.90;;;;;;5040187;28;20071;-64
2023/02/24 02:58:59;;;;;;;3.95;1.83;;;3.50;99.90;;;;;;5061407;28;20114;-66
2023/02/24 03:01:40;;;;;;;4.93;1.77;;;3.60;99.90;;;;;;5054567;28;20623;-64
2023/02/24 03:04:08;;;;;;;6.93;2.05;;;3.70;99.90;;;;;;5053952;28;20119;-65
2023/02/24 03:06:39;;;;;;;6.70;2.30;;;3.80;99.90;;;;;;5056232;28;20656;-65
2023/02/24 03:09:11;;;;;;;2.90;1.58;;;3.70;99.90;;;;;;5060054;28;20040;-65
2023/02/24 03:11:38;;;;;;;6.20;2.20;;;3.70;99.90;;;;;;5061154;28;20040;-64
2023/02/24 03:14:10;;;;;;;6.63;2.00;;;3.70;99.90;;;;;;5073634;28;20040;-64
2023/02/24 03:16:40;;;;;;;4.72;1.90;;;3.70;99.90;;;;;;5055319;28;20615;-63
2023/02/24 03:19:08;;;;;;;3.83;1.80;;;3.60;99.90;;;;;;5057162;28;20035;-65
2023/02/24 03:21:44;;;;;;;4.38;1.80;;;3.60;99.90;;;;;;5062329;28;20541;-64
2023/02/24 03:24:10;;;;;;;6.20;2.10;;;3.60;99.90;;;;;;5061445;28;20037;-65
2023/02/24 03:27:03;;;;;;;10.27;2.22;;;3.60;99.90;;;;;;5061032;28;20045;-63
2023/02/24 03:29:51;;;;;;;6.50;1.88;;;3.70;99.90;;;;;;5060089;28;20040;-63
2023/02/24 03:32:31;;;;;;;7.77;2.17;;;3.70;99.90;;;;;;5051652;28;20043;-65
2023/02/24 03:35:16;;;;;;;6.43;2.03;;;3.60;99.90;;;;;;5059825;28;20044;-63
2023/02/24 03:37:42;;;;;;;3.65;1.88;;;3.50;99.90;;;;;;5058998;28;20171;-62
2023/02/24 03:40:13;;;;;;;4.05;1.50;;;3.40;99.90;;;;;;5062583;28;20047;-61
2023/02/24 03:42:51;;;;;;;6.30;1.90;;;3.40;99.90;;;;;;5060339;28;20469;-65
2023/02/24 03:45:18;;;;;;;6.38;2.03;;;3.40;99.90;;;;;;5060873;28;20064;-63
2023/02/24 03:47:45;;;;;;;8.30;2.90;;;3.40;99.90;;;;;;5057904;28;20037;-66
2023/02/24 03:50:18;;;;;;;7.25;3.17;;;3.40;99.90;;;;;;5057075;28;20040;-64
2023/02/24 03:53:21;;;;;;;8.73;2.67;;;3.40;99.90;;;;;;5060203;28;20691;-63
2023/02/24 03:56:05;;;;;;;9.57;3.63;;;3.40;99.90;;;;;;5052796;28;20060;-65
2023/02/24 03:58:58;;;;;;;8.18;3.63;;;3.40;99.90;;;;;;5064004;28;20040;-66
2023/02/24 04:01:45;;;;;;;7.82;3.25;;;3.50;99.90;;;;;;5063625;28;20044;-63
2023/02/24 04:04:20;;;;;;;;;;;3.50;99.90;;;;;;5057586;28;20120;-63
2023/02/24 04:07:10;;;;;;;11.05;3.63;;;3.40;99.90;;;;;;5058108;28;19920;-64
2023/02/24 04:10:08;;;;;;;13.10;4.47;;;3.50;99.90;;;;;;5067366;28;20037;-61
2023/02/24 04:13:00;;;;;;;11.15;3.85;;;3.50;99.90;;;;;;5055589;28;20033;-64
2023/02/24 04:15:31;;;;;;;13.48;4.53;;;3.50;99.90;;;;;;5065628;28;20063;-64
2023/02/24 04:18:20;;;;;;;15.88;5.35;;;3.30;99.90;;;;;;5061855;28;20033;-64
2023/02/24 04:20:51;;;;;;;14.82;4.75;;;3.20;99.90;;;;;;5060992;28;20506;-65
2023/02/24 04:23:22;;;;;;;8.68;4.53;;;3.30;99.90;;;;;;5068856;28;20508;-64
2023/02/24 04:25:50;;;;;;;16.63;4.95;;;3.30;99.90;;;;;;5062992;28;20416;-62
2023/02/24 04:28:21;;;;;;;13.32;5.45;;;3.40;99.90;;;;;;5064543;28;20037;-65
2023/02/24 04:30:50;;;;;;;17.52;4.93;;;3.40;99.90;;;;;;5064473;28;20401;-64
2023/02/24 04:33:16;;;;;;;15.93;4.90;;;3.20;99.90;;;;;;5057817;28;20052;-64
2023/02/24 04:35:47;;;;;;;16.48;5.25;;;3.20;99.90;;;;;;5063024;28;20508;-65
2023/02/24 04:38:12;;;;;;;25.75;6.43;;;3.10;99.90;;;;;;5058546;28;20098;-63
2023/02/24 04:40:39;;;;;;;19.05;4.90;;;2.90;99.90;;;;;;5063098;28;20110;-63
2023/02/24 04:43:06;;;;;;;21.02;5.15;;;2.90;99.90;;;;;;5060824;28;20051;-63
2023/02/24 04:45:32;;;;;;;17.05;4.60;;;2.90;99.90;;;;;;5063500;28;20839;-61
2023/02/24 04:48:00;;;;;;;18.73;5.22;;;2.80;99.90;;;;;;5060907;28;20067;-63
2023/02/24 04:50:33;;;;;;;13.35;4.60;;;2.80;99.90;;;;;;5065261;28;20048;-65
2023/02/24 04:53:06;;;;;;;20.00;5.55;;;2.80;99.90;;;;;;5064591;28;20037;-65
2023/02/24 04:55:39;;;;;;;15.77;4.80;;;2.90;99.90;;;;;;5061159;28;20055;-63
2023/02/24 04:58:12;;;;;;;18.45;5.80;;;2.90;99.90;;;;;;5061397;28;20063;-62
2023/02/24 05:00:40;;;;;;;16.45;5.47;;;2.90;99.90;;;;;;5057670;28;20492;-63
2023/02/24 05:03:09;;;;;;;25.08;6.63;;;2.80;99.90;;;;;;5063405;28;20625;-63
2023/02/24 05:05:35;;;;;;;33.78;6.82;;;2.70;99.90;;;;;;5062118;28;20036;-63
2023/02/24 05:08:06;;;;;;;17.70;6.07;;;2.70;99.90;;;;;;5064060;28;20067;-62
2023/02/24 05:10:37;;;;;;;19.52;6.25;;;2.70;99.90;;;;;;5062972;28;20111;-63
2023/02/24 05:13:05;;;;;;;22.20;7.25;;;2.80;99.90;;;;;;5063078;28;20312;-66
2023/02/24 05:15:31;;;;;;;23.52;7.45;;;2.80;99.90;;;;;;5058235;28;20060;-64
2023/02/24 05:18:06;;;;;;;30.17;7.38;;;2.80;99.90;;;;;;5064045;28;20067;-64
2023/02/24 05:23:28;;;;;;;24.08;6.93;;;2.70;99.90;;;;;;5064470;28;20708;-64
2023/02/24 05:25:54;;;;;;;22.40;6.72;;;2.70;99.90;;;;;;5059384;28;20045;-64
2023/02/24 05:28:23;;;;;;;17.08;5.85;;;2.80;99.90;;;;;;5062053;28;20100;-63
2023/02/24 05:30:50;;;;;;;20.55;8.23;;;2.80;99.90;;;;;;5061162;28;20048;-64
2023/02/24 05:33:20;;;;;;;24.77;7.10;;;2.70;99.90;;;;;;5059548;28;20053;-64
2023/02/24 05:35:47;;;;;;;25.67;8.43;;;2.70;99.90;;;;;;5061116;28;20516;-63
2023/02/24 05:38:13;;;;;;;21.33;7.63;;;2.70;99.90;;;;;;5065910;28;20055;-65
2023/02/24 05:40:45;;;;;;;24.85;8.48;;;2.80;99.90;;;;;;5061928;28;20040;-65
2023/02/24 05:43:16;;;;;;;25.63;7.43;;;2.70;99.90;;;;;;5058977;28;20074;-64
2023/02/24 05:45:44;;;;;;;25.10;7.90;;;2.70;99.90;;;;;;5066253;28;20109;-63
2023/02/24 05:48:10;;;;;;;22.10;7.88;;;2.70;99.90;;;;;;5061833;28;20037;-63
2023/02/24 05:50:37;;;;;;;20.83;7.88;;;2.60;99.90;;;;;;5060482;28;20037;-64
2023/02/24 05:53:03;;;;;;;26.60;9.13;;;2.70;99.90;;;;;;5063427;28;20404;-63
2023/02/24 05:55:30;;;;;;;20.45;8.00;;;2.70;99.90;;;;;;5063363;28;20033;-65
2023/02/24 05:57:58;;;;;;;20.27;8.40;;;2.70;99.90;;;;;;5059756;28;20047;-64
2023/02/24 06:00:24;;;;;;;20.70;7.85;;;2.60;99.90;;;;;;5063408;28;20816;-63
2023/02/24 06:02:51;;;;;;;23.67;8.40;;;2.60;99.90;;;;;;5063160;28;20067;-64
2023/02/24 06:05:27;;;;;;;17.73;7.10;;;2.60;99.90;;;;;;5062772;28;20036;-63
2023/02/24 06:08:05;;;;;;;17.88;7.68;;;2.60;99.90;;;;;;5060808;28;20037;-62
2023/02/24 06:10:32;;;;;;;22.17;8.18;;;2.60;99.90;;;;;;5057936;28;20524;-65
2023/02/24 06:13:00;;;;;;;26.92;9.63;;;2.60;99.90;;;;;;5060062;28;20067;-63
2023/02/24 06:15:26;;;;;;;22.38;7.32;;;2.60;99.90;;;;;;5061359;28;20032;-62
2023/02/24 06:17:55;;;;;;;18.55;7.78;;;2.60;99.90;;;;;;5059603;28;20102;-64
2023/02/24 06:20:25;;;;;;;26.85;7.70;;;2.60;99.90;;;;;;5063743;28;20045;-64
2023/02/24 06:22:56;;;;;;;29.42;7.13;;;2.50;99.90;;;;;;5069189;28;20040;-65
2023/02/24 06:25:28;;;;;;;23.53;7.73;;;2.50;99.90;;;;;;5058469;28;20053;-65
2023/02/24 06:27:54;;;;;;;30.38;8.18;;;2.60;99.90;;;;;;5054928;28;20262;-63
2023/02/24 06:30:25;;;;;;;32.92;7.68;;;2.60;99.90;;;;;;5058869;28;20065;-64
2023/02/24 06:32:52;;;;;;;27.20;6.53;;;2.60;99.90;;;;;;5056124;28;20040;-62
2023/02/24 06:35:19;;;;;;;21.95;7.22;;;2.50;99.90;;;;;;5061562;28;20048;-63
2023/02/24 06:37:46;;;;;;;20.20;5.40;;;2.50;99.90;;;;;;5062550;28;20074;-64
2023/02/24 06:40:14;;;;;;;28.67;7.07;;;2.60;99.90;;;;;;5059625;28;20442;-63
2023/02/24 06:42:48;;;;;;;21.27;6.15;;;2.60;99.90;;;;;;5066912;28;20746;-63
2023/02/24 06:45:14;;;;;;;24.50;6.50;;;2.60;99.90;;;;;;5056885;28;20094;-63
2023/02/24 06:47:41;;;;;;;19.58;7.05;;;2.60;99.90;;;;;;5054703;28;20102;-64
2023/02/24 06:50:09;;;;;;;26.25;6.78;;;2.50;99.90;;;;;;5059315;28;20037;-63
2023/02/24 06:52:35;;;;;;;28.38;7.55;;;2.50;99.90;;;;;;5058755;28;20036;-62
2023/02/24 06:55:05;;;;;;;29.13;6.97;;;2.50;99.90;;;;;;5061815;28;20123;-65
2023/02/24 06:57:34;;;;;;;26.13;7.47;;;2.50;99.90;;;;;;5066311;28;20052;-65
2023/02/24 07:00:15;;;;;;;23.98;8.90;;;2.50;99.90;;;;;;5049941;28;20033;-62
2023/02/24 07:02:41;;;;;;;32.45;7.25;;;2.50;99.90;;;;;;5061668;28;20095;-65
2023/02/24 07:05:13;;;;;;;25.58;7.47;;;2.50;99.90;;;;;;5062755;28;20484;-65
2023/02/24 07:07:44;;;;;;;17.70;5.93;;;2.50;99.90;;;;;;5063349;28;20685;-65
2023/02/24 07:10:12;;;;;;;23.27;7.40;;;2.50;99.90;;;;;;5063281;28;20037;-64
2023/02/24 07:12:40;;;;;;;22.15;7.50;;;2.50;99.90;;;;;;5063496;28;21295;-64
2023/02/24 07:15:07;;;;;;;23.20;6.60;;;2.60;99.90;;;;;;5063164;28;20044;-61
2023/02/24 07:17:32;;;;;;;22.35;7.00;;;2.60;99.90;;;;;;5056679;28;20045;-62
2023/02/24 07:20:09;;;;;;;17.83;6.93;;;2.70;99.90;;;;;;5062350;28;20033;-61
2023/02/24 07:22:35;;;;;;;20.05;6.15;;;2.70;99.90;;;;;;5051994;28;20048;-62
2023/02/24 07:25:01;;;;;;;22.58;6.90;;;2.70;99.90;;;;;;5055744;28;20037;-62
2023/02/24 07:27:26;;;;;;;16.55;6.55;;;2.80;99.90;;;;;;5052983;28;20041;-61
2023/02/24 07:29:52;;;;;;;27.02;6.85;;;2.70;99.90;;;;;;5062038;28;20357;-64
2023/02/24 07:32:21;;;;;;;27.83;7.15;;;2.50;99.90;;;;;;5059237;28;20068;-62
2023/02/24 07:34:46;;;;;;;19.85;5.43;;;2.60;99.90;;;;;;5065529;28;20041;-62
2023/02/24 07:37:12;;;;;;;26.00;6.10;;;2.50;99.90;;;;;;5060345;28;20105;-62
2023/02/24 07:39:41;;;;;;;16.73;5.50;;;2.40;99.90;;;;;;5065681;28;20075;-62
2023/02/24 07:42:09;;;;;;;24.08;6.07;;;2.40;99.90;;;;;;5058145;28;20036;-59
2023/02/24 07:44:34;;;;;;;31.33;5.70;;;2.30;99.90;;;;;;5064518;28;20068;-64
2023/02/24 07:47:06;;;;;;;20.65;4.20;;;2.30;99.90;;;;;;5065204;28;20519;-61
2023/02/24 07:49:32;;;;;;;17.95;4.28;;;2.40;99.90;;;;;;5062316;28;20056;-63
2023/02/24 07:51:58;;;;;;;18.15;4.97;;;2.40;99.90;;;;;;5065730;28;20036;-63
2023/02/24 07:54:28;;;;;;;19.92;3.70;;;2.50;99.90;;;;;;5072501;28;20048;-62
2023/02/24 07:56:55;;;;;;;11.68;3.28;;;2.60;99.90;;;;;;5056422;28;20059;-61
2023/02/24 07:59:24;;;;;;;17.75;3.42;;;2.60;99.90;;;;;;5066449;28;20040;-62
2023/02/24 08:01:49;;;;;;;14.57;3.08;;;2.70;99.90;;;;;;5060634;28;20059;-61
2023/02/24 08:04:22;;;;;;;9.50;2.63;;;2.70;99.90;;;;;;5061514;28;20129;-62
2023/02/24 08:06:54;;;;;;;5.82;1.98;;;2.70;99.90;;;;;;5058394;28;20048;-63
2023/02/24 08:09:45;;;;;;;14.60;3.30;;;2.60;99.90;;;;;;5065619;28;20048;-67
2023/02/24 08:12:08;;;;;;;15.45;2.85;;;2.60;99.90;;;;;;5059994;28;20063;-63
2023/02/24 08:14:43;;;;;;;8.73;2.75;;;2.70;99.90;;;;;;5065331;28;20044;-60
2023/02/24 08:17:10;;;;;;;16.83;3.47;;;2.70;99.90;;;;;;5063445;28;20123;-62
2023/02/24 08:19:38;;;;;;;15.25;2.58;;;2.80;99.90;;;;;;5063620;28;20055;-61
2023/02/24 08:22:18;;;;;;;11.73;3.00;;;2.70;99.90;;;;;;5056320;28;20093;-61
2023/02/24 08:24:48;;;;;;;10.10;3.10;;;2.70;99.90;;;;;;5059321;28;20551;-61
2023/02/24 08:27:18;;;;;;;12.38;2.80;;;2.80;99.90;;;;;;5060410;28;20041;-63
2023/02/24 08:29:58;;;;;;;9.95;2.72;;;2.80;99.90;;;;;;5072204;28;20064;-63
2023/02/24 08:32:35;;;;;;;13.10;2.55;;;2.70;99.90;;;;;;5057841;28;20488;-65
2023/02/24 08:35:13;;;;;;;11.02;2.70;;;2.80;99.90;;;;;;5061420;28;20044;-62
2023/02/24 08:37:47;;;;;;;11.80;2.60;;;2.80;99.90;;;;;;5063694;28;20045;-63
2023/02/24 08:43:29;;;;;;;7.40;2.20;;;2.70;99.90;;;;;;5063071;28;20476;-61
2023/02/24 08:46:17;;;;;;;18.77;2.92;;;2.80;99.90;;;;;;5059580;28;20052;-61
2023/02/24 08:48:54;;;;;;;8.55;2.58;;;2.80;99.90;;;;;;5062659;28;20071;-63
2023/02/24 08:51:27;;;;;;;10.80;2.95;;;2.90;99.90;;;;;;5064935;28;20488;-62
2023/02/24 08:53:58;;;;;;;7.63;2.88;;;2.80;99.90;;;;;;5070254;28;20037;-63
2023/02/24 08:56:33;;;;;;;8.98;2.55;;;2.80;99.90;;;;;;5064361;28;20045;-64
2023/02/24 08:59:04;;;;;;;7.47;2.72;;;2.80;99.90;;;;;;5059085;28;20128;-62
2023/02/24 09:01:33;;;;;;;11.95;3.42;;;2.70;99.90;;;;;;5057060;28;20052;-64
2023/02/24 09:04:02;;;;;;;10.82;3.20;;;2.70;99.90;;;;;;5063522;28;20874;-63
2023/02/24 09:06:44;;;;;;;13.80;3.10;;;2.80;99.90;;;;;;5059875;28;20858;-64
2023/02/24 09:09:17;;;;;;;12.38;3.33;;;2.90;99.90;;;;;;5062023;28;20041;-65
2023/02/24 09:12:03;;;;;;;13.75;3.30;;;2.80;99.90;;;;;;5062219;28;20025;-64
2023/02/24 09:14:35;;;;;;;10.90;2.93;;;2.90;99.90;;;;;;5065165;28;20040;-63
2023/02/24 09:17:02;;;;;;;9.07;2.97;;;2.80;99.90;;;;;;5067162;28;20040;-65
2023/02/24 09:20:35;;;;;;;11.75;3.28;;;2.90;99.90;;;;;;5060753;28;20036;-64
2023/02/24 09:22:31;;;;;;;15.90;2.90;;;2.90;99.90;;;;;;5060041;28;20056;-61
2023/02/24 09:25:16;;;;;;;10.07;2.90;;;2.70;99.90;;;;;;5059786;28;20028;-65
2023/02/24 09:27:54;;;;;;;9.13;3.05;;;2.70;99.90;;;;;;5058052;28;20047;-64
2023/02/24 09:30:37;;;;;;;15.02;3.08;;;2.70;99.90;;;;;;5055646;28;20072;-64
2023/02/24 09:33:19;;;;;;;13.15;3.00;;;2.70;99.90;;;;;;5055474;28;20048;-63
2023/02/24 09:36:01;;;;;;;13.95;4.00;;;2.70;99.90;;;;;;5062995;28;20046;-64
2023/02/24 09:41:52;;;;;;;9.88;3.55;;;2.50;99.90;;;;;;5059905;28;20040;-63
2023/02/24 09:44:39;;;;;;;9.18;3.03;;;2.50;99.90;;;;;;5059411;28;20044;-64
2023/02/24 09:47:50;;;;;;;11.35;3.40;;;2.50;99.90;;;;;;5060046;28;20047;-63
2023/02/24 09:50:18;;;;;;;10.30;2.60;;;2.70;99.90;;;;;;5062906;28;20033;-62
2023/02/24 09:52:52;;;;;;;13.20;3.05;;;2.70;99.90;;;;;;5060322;28;20063;-64
2023/02/24 09:55:44;;;;;;;11.30;2.92;;;2.60;99.90;;;;;;5059842;28;20093;-62
2023/02/24 09:58:25;;;;;;;14.82;3.40;;;2.60;99.90;;;;;;5062794;28;20500;-64
2023/02/24 10:01:19;;;;;;;14.35;3.45;;;2.60;99.90;;;;;;5056394;28;20036;-64
2023/02/24 10:04:03;;;;;;;8.57;3.17;;;2.70;99.90;;;;;;5060578;28;20036;-64
2023/02/24 10:06:41;;;;;;;13.27;3.65;;;2.60;99.90;;;;;;5054378;28;20457;-64
2023/02/24 10:09:33;;;;;;;11.45;4.25;;;2.50;99.90;;;;;;5062085;28;20041;-63
2023/02/24 10:12:22;;;;;;;22.17;3.80;;;2.50;99.90;;;;;;5054855;28;20044;-65
2023/02/24 10:15:17;;;;;;;16.38;3.63;;;2.50;99.90;;;;;;5058240;28;20052;-63
2023/02/24 10:17:46;;;;;;;11.40;3.95;;;2.60;99.90;;;;;;5058471;28;20517;-62
2023/02/24 10:20:38;;;;;;;12.93;3.40;;;2.50;99.90;;;;;;5064202;28;20400;-63
2023/02/24 10:23:31;;;;;;;14.65;3.40;;;2.60;99.90;;;;;;5065205;28;20040;-64
2023/02/24 10:26:20;;;;;;;17.73;4.95;;;2.70;99.90;;;;;;5063119;28;20503;-64
2023/02/24 10:28:54;;;;;;;17.80;4.13;;;2.80;99.90;;;;;;5058292;28;20484;-64
2023/02/24 10:31:34;;;;;;;9.23;3.78;;;2.70;99.90;;;;;;5057783;28;20047;-62
2023/02/24 10:34:06;;;;;;;11.48;3.90;;;2.70;99.90;;;;;;5063246;28;20088;-65
2023/02/24 10:36:36;;;;;;;18.13;4.60;;;2.70;99.90;;;;;;5062356;28;20052;-63
2023/02/24 10:39:19;;;;;;;11.88;3.35;;;2.70;99.90;;;;;;5060605;28;20052;-64
2023/02/24 10:41:56;;;;;;;14.43;3.47;;;2.40;99.90;;;;;;5062949;28;20068;-65
2023/02/24 10:44:34;;;;;;;10.43;3.45;;;2.40;99.90;;;;;;5062549;28;20038;-64
2023/02/24 10:47:11;;;;;;;10.65;3.50;;;2.40;99.90;;;;;;5062497;28;20136;-65
2023/02/24 10:49:55;;;;;;;11.57;4.30;;;2.50;99.90;;;;;;5058612;28;20046;-63
2023/02/24 10:52:36;;;;;;;14.15;3.88;;;2.40;99.90;;;;;;5058954;28;20060;-63
2023/02/24 10:58:27;;;;;;;13.40;4.70;;;2.60;99.90;;;;;;5061105;28;20033;-63
2023/02/24 11:03:40;;;;;;;11.25;3.72;;;2.40;99.90;;;;;;5057043;28;20044;-64
2023/02/24 11:17:59;;;;;;;18.52;5.82;;;1.90;99.90;;;;;;5058483;28;20036;-66
2023/02/24 11:20:37;;;;;;;17.15;6.38;;;1.80;99.90;;;;;;5057711;28;20666;-63
2023/02/24 11:23:08;;;;;;;15.32;6.05;;;1.80;99.90;;;;;;5058175;28;20062;-64
2023/02/24 11:25:39;;;;;;;19.67;7.40;;;1.80;99.90;;;;;;5056646;28;20090;-63
2023/02/24 11:28:18;;;;;;;17.10;6.40;;;1.90;99.90;;;;;;5060791;28;20800;-63
2023/02/24 11:30:55;;;;;;;15.10;6.25;;;1.80;99.90;;;;;;5059799;28;20036;-64
2023/02/24 11:33:28;;;;;;;16.88;6.90;;;1.80;99.90;;;;;;5062499;28;20032;-64
2023/02/24 11:36:35;;;;;;;12.38;6.45;;;1.90;99.90;;;;;;5061413;28;20056;-64
2023/02/24 11:39:28;;;;;;;13.23;6.30;;;2.00;99.90;;;;;;5060355;28;20103;-64
2023/02/24 11:41:58;;;;;;;15.45;6.32;;;1.90;99.90;;;;;;5058659;28;20668;-63
2023/02/24 11:44:39;;;;;;;19.17;5.55;;;1.90;99.90;;;;;;5061663;28;20162;-61
2023/02/24 11:47:12;;;;;;;15.20;5.75;;;1.90;99.90;;;;;;5060275;28;20504;-65
2023/02/24 11:49:58;;;;;;;10.55;6.10;;;1.90;99.90;;;;;;5062045;28;20089;-64
2023/02/24 11:52:37;;;;;;;24.80;6.53;;;2.00;99.90;;;;;;5057570;28;20056;-66
2023/02/24 11:55:11;;;;;;;19.17;5.38;;;2.00;99.90;;;;;;5052921;28;20047;-61
2023/02/24 11:57:45;;;;;;;13.50;5.05;;;2.10;99.90;;;;;;5053020;28;20048;-65
2023/02/24 12:00:19;;;;;;;17.60;5.47;;;2.20;99.90;;;;;;5057749;28;20074;-62
2023/02/24 12:02:58;;;;;;;14.20;5.40;;;2.20;99.90;;;;;;5047652;28;20045;-65
2023/02/24 12:05:35;;;;;;;16.98;6.05;;;2.20;99.90;;;;;;5047909;28;20051;-63
2023/02/24 12:08:30;;;;;;;11.07;5.18;;;2.20;99.90;;;;;;5054148;28;20496;-63
2023/02/24 12:11:04;;;;;;;13.25;4.95;;;2.20;99.90;;;;;;5047860;28;20052;-64
2023/02/24 12:13:44;;;;;;;16.90;5.05;;;2.20;99.90;;;;;;5052252;28;20071;-63
2023/02/24 12:16:24;;;;;;;16.10;5.15;;;2.20;99.90;;;;;;5057639;28;20052;-64
2023/02/24 12:18:59;;;;;;;16.23;5.20;;;2.10;99.90;;;;;;5059140;28;20036;-64
2023/02/24 12:21:33;;;;;;;8.82;4.63;;;2.20;99.90;;;;;;5054681;28;20040;-63
2023/02/24 12:24:00;;;;;;;15.15;5.50;;;2.20;99.90;;;;;;5056114;28;21177;-63
2023/02/24 12:26:47;;;;;;;14.55;5.78;;;2.20;99.90;;;;;;5054550;28;20053;-63
2023/02/24 12:29:41;;;;;;;13.80;5.53;;;2.20;99.90;;;;;;5055708;28;20033;-61
2023/02/24 12:32:14;;;;;;;9.93;4.60;;;2.10;99.90;;;;;;5053059;28;20052;-62
2023/02/24 12:34:46;;;;;;;13.20;5.75;;;2.10;99.90;;;;;;5055583;28;20119;-63
2023/02/24 12:37:33;;;;;;;14.57;5.53;;;2.20;99.90;;;;;;5056080;28;20039;-64
2023/02/24 12:40:24;;;;;;;13.60;5.38;;;2.20;99.90;;;;;;5070760;28;20040;-61
2023/02/24 12:43:13;;;;;;;9.20;4.85;;;2.20;99.90;;;;;;5060067;28;20122;-64
2023/02/24 12:45:45;;;;;;;11.73;4.82;;;2.30;99.90;;;;;;5060355;28;20032;-63
2023/02/24 12:48:39;;;;;;;12.48;5.15;;;2.30;99.90;;;;;;5059522;28;20102;-62
2023/02/24 12:51:23;;;;;;;10.05;4.65;;;2.40;99.90;;;;;;5063097;28;20036;-64
2023/02/24 12:53:56;;;;;;;9.93;4.78;;;2.50;99.90;;;;;;5061636;28;20040;-65
2023/02/24 12:56:44;;;;;;;14.80;5.32;;;2.50;99.90;;;;;;5058504;28;20036;-63
2023/02/24 12:59:16;;;;;;;12.77;5.35;;;2.30;99.90;;;;;;5063496;28;20040;-63
2023/02/24 13:01:55;;;;;;;6.40;4.00;;;2.20;99.90;;;;;;5056717;28;20041;-63
2023/02/24 13:05:05;;;;;;;11.05;5.30;;;2.20;99.90;;;;;;5064790;28;20123;-62
2023/02/24 13:07:40;;;;;;;7.63;4.00;;;2.20;99.90;;;;;;5058492;28;20043;-63
2023/02/24 13:10:28;;;;;;;15.55;4.65;;;2.20;99.90;;;;;;5061948;28;20048;-63
2023/02/24 13:13:15;;;;;;;9.65;4.93;;;2.20;99.90;;;;;;5055585;28;20037;-63
2023/02/24 13:15:53;;;;;;;10.25;4.90;;;2.20;99.90;;;;;;5059564;28;20056;-63
2023/02/24 13:18:34;;;;;;;7.70;4.35;;;2.20;99.90;;;;;;5060400;28;20045;-65
2023/02/24 13:21:29;;;;;;;7.15;5.18;;;2.20;99.90;;;;;;5060068;28;20049;-62
2023/02/24 13:23:59;;;;;;;7.85;4.35;;;2.20;99.90;;;;;;5054337;28;20041;-63
2023/02/24 13:26:30;;;;;;;12.93;4.45;;;2.20;99.90;;;;;;5054141;28;20032;-66
2023/02/24 13:29:12;;;;;;;11.00;4.40;;;2.10;99.90;;;;;;5056449;28;20102;-63
2023/02/24 13:31:51;;;;;;;8.43;4.85;;;2.00;99.90;;;;;;5061942;28;20043;-61
2023/02/24 13:34:43;;;;;;;8.13;4.63;;;2.00;99.90;;;;;;5057509;28;20045;-64
2023/02/24 13:37:10;;;;;;;11.55;5.07;;;2.00;99.90;;;;;;5058137;28;20110;-61
2023/02/24 13:39:40;;;;;;;11.75;5.30;;;1.80;99.90;;;;;;5062760;28;20041;-64
2023/02/24 13:42:25;;;;;;;12.15;5.07;;;1.80;99.90;;;;;;5063645;28;20044;-64
2023/02/24 13:45:08;;;;;;;8.02;4.70;;;1.70;99.90;;;;;;5060855;28;20131;-64
2023/02/24 13:48:14;;;;;;;9.10;4.85;;;1.70;99.90;;;;;;5059541;28;20080;-61
2023/02/24 13:50:56;;;;;;;10.77;4.80;;;1.90;99.90;;;;;;5057566;28;20040;-62
2023/02/24 13:53:35;;;;;;;8.18;4.47;;;1.90;99.90;;;;;;5054476;28;20103;-63
2023/02/24 13:56:33;;;;;;;8.90;4.75;;;1.90;99.90;;;;;;5056150;28;20155;-63
2023/02/24 13:59:39;;;;;;;7.72;4.22;;;1.90;99.90;;;;;;5056653;28;20599;-61